• Join FlightAware (Why Join?)
  • Login
  • US Flag 
04:11PM EDT


 

Airport Tracker/Info


-or-


 

Live Flight TrackerFlight Track Log ✈ N884FT ✈ 08-Sep-2013 ✈ KEYW - KMLB

Flight Track Log - Related Links

Times and Time Zones

All times are in EDT time to prevent confusion due to time zone crossing. See the N884FT flight status page for this flight to view local times or setup timezone preferences in your user account.

Time Position Orientation Groundspeed Altitude Reporting Facility
EDT Latitude Longitude Course Direction KTS MPH feet Rate Location/Type
03:38PM 27.0494 -80.3528 343° North 149 171 6,000  Level Miami Center
03:39PM 27.0950 -80.3633 348° North 154 177 5,700 -420 Descending Miami Center
03:40PM 27.0793 -80.2454 341° North  Level FlightAware Approximate
03:40PM 27.1408 -80.3742 348° North 159 183 5,200  Level Miami Center
03:41PM 27.1143 -80.2592 341° North  Level FlightAware Approximate
03:41PM 27.1864 -80.3850 348° North 159 183 5,000  Level Miami Center
03:42PM 27.1496 -80.2721 343° North  Level FlightAware Approximate
03:42PM 27.2217 -80.3931 349° North 159 183 5,000  Level Miami Center
03:43PM 27.2611 -80.4083 341° North 154 177 5,000  Level Miami Center
03:44PM 27.3067 -80.4189 348° North 147 169 5,000  Level Miami Center
03:45PM 27.3461 -80.4319 344° North 147 169 5,000  Level Miami Center
03:46PM 27.3856 -80.4425 347° North 147 169 5,000  Level Miami Center
03:47PM 27.4208 -80.4506 349° North 142 163 5,000  Level Miami Center
03:48PM 27.4581 -80.4633 343° North 142 163 5,000  Level Miami Center
03:49PM 27.5017 -80.4764 345° North 142 163 5,000  Level Miami Center
03:50PM 27.5408 -80.4894 344° North 142 163 5,000  Level Miami Center
03:51PM 27.5761 -80.4975 349° North 142 163 5,000  Level Miami Center
03:52PM 27.6156 -80.5083 346° North 142 163 5,100 -540 Climbing Miami Center
03:54PM 27.7167 -80.5333 348° North 153 176 3,300 -660 Descending Orlando TRACON
03:55PM 27.7500 -80.5500 336° Northwest 139 160 3,000 -120 Descending Orlando TRACON
03:56PM 27.7667 -80.5500 360° North 111 128 3,100  Climbing Orlando TRACON
03:57PM 27.8167 -80.5667 344° North 127 146 3,100  Level Orlando TRACON
03:58PM 27.8500 -80.5833 336° Northwest 134 154 3,200  Climbing Orlando TRACON
03:59PM 27.8833 -80.6000 336° Northwest 128 147 3,200  Level Orlando TRACON
04:00PM 27.9167 -80.6000 360° North 135 155 3,200 -180 Level Orlando TRACON
04:01PM 27.9500 -80.6333 319° Northwest 142 163 2,900 -300 Descending Orlando TRACON
04:02PM 27.9833 -80.6500 336° Northwest 142 163 2,600 -540 Descending Orlando TRACON
04:03PM 28.0167 -80.6667 336° Northwest 137 158 1,900 -540 Descending Orlando TRACON
04:04PM 28.0333 -80.7000 300° West 125 144 1,500 -240 Descending Orlando TRACON
04:05PM 28.0500 -80.7000 360° North 100 115 1,500 -180 Level Orlando TRACON
04:06PM 28.0833 -80.7000 360° North 90 104 1,200 -420 Descending Orlando TRACON
04:07PM 28.1000 -80.7000 360° North 72 83 700 -540 Descending Orlando TRACON